Time;durP1;ratioP1;P1;durP2;ratioP2;P2;SDS_P1;SDS_P2;PMS_P1;PMS_P2;Temp;Humidity;BMP_temperature;BMP_pressure;BME280_temperature;BME280_humidity;BME280_pressure;Samples;Min_cycle;Max_cycle;Signal;HPM_P1;HPM_P2
2023/03/07 00:00:49;;;;;;;8.70;6.60;;;;;;;-0.54;100.00;91799.97;2067052;28;20022;-83
2023/03/07 00:01:55;;;;;;;9.23;6.70;;;;;;;-0.77;100.00;91797.75;2069649;28;20554;-82
2023/03/07 00:02:56;;;;;;;8.85;6.65;;;;;;;-0.86;100.00;91800.75;2052717;28;20026;-83
2023/03/07 00:03:58;;;;;;;8.50;6.47;;;;;;;-0.91;100.00;91798.50;2052053;28;20031;-82
2023/03/07 00:04:59;;;;;;;8.50;6.35;;;;;;;-0.96;100.00;91806.75;2050731;28;20022;-83
2023/03/07 00:06:03;;;;;;;11.00;7.07;;;;;;;-0.87;100.00;91804.50;2052913;28;20077;-83
2023/03/07 00:07:19;;;;;;;7.30;6.40;;;;;;;-0.76;100.00;91807.09;2070367;28;20018;-83
2023/03/07 00:08:20;;;;;;;8.60;6.47;;;;;;;-0.64;100.00;91805.97;2073706;28;20081;-83
2023/03/07 00:09:27;;;;;;;8.40;6.40;;;;;;;-0.72;100.00;91797.38;2065747;28;20085;-83
2023/03/07 00:10:29;;;;;;;8.98;6.72;;;;;;;-0.64;100.00;91800.72;2066969;28;20014;-83
2023/03/07 00:11:30;;;;;;;9.63;7.15;;;;;;;-0.80;100.00;91808.97;2067702;28;20081;-83
2023/03/07 00:12:31;;;;;;;8.10;6.45;;;;;;;-0.79;100.00;91799.97;2066351;28;20805;-83
2023/03/07 00:13:34;;;;;;;8.38;6.57;;;;;;;-0.60;100.00;91806.72;2068853;28;20026;-83
2023/03/07 00:14:35;;;;;;;8.80;6.78;;;;;;;-0.19;100.00;91801.00;2062376;28;20105;-83
2023/03/07 00:15:38;;;;;;;9.38;6.97;;;;;;;-0.56;100.00;91805.59;2052294;28;20110;-83
2023/03/07 00:16:40;;;;;;;7.85;6.70;;;;;;;-0.46;100.00;91798.81;2067386;28;20034;-83
2023/03/07 00:17:41;;;;;;;9.27;6.90;;;;;;;-0.61;100.00;91808.59;2075634;28;20029;-83
2023/03/07 00:18:44;;;;;;;8.55;6.75;;;;;;;-0.81;100.00;91812.75;2075791;28;20029;-84
2023/03/07 00:19:46;;;;;;;9.30;6.65;;;;;;;-0.80;100.00;91806.38;2068762;28;20542;-83
2023/03/07 00:20:59;;;;;;;9.90;6.97;;;;;;;-0.93;100.00;91810.50;2058232;28;20019;-82
2023/03/07 00:22:01;;;;;;;7.85;6.63;;;;;;;-0.91;100.00;91810.88;2066604;28;20026;-83
2023/03/07 00:23:04;;;;;;;8.00;6.95;;;;;;;-0.97;100.00;91817.59;2064651;28;20030;-83
2023/03/07 00:24:05;;;;;;;9.27;7.00;;;;;;;-1.00;100.00;91802.63;2060871;28;20400;-83
2023/03/07 00:25:07;;;;;;;11.48;7.32;;;;;;;-1.05;100.00;91809.75;2066837;28;20030;-83
2023/03/07 00:26:14;;;;;;;10.75;7.28;;;;;;;-1.06;100.00;91823.97;2062381;28;20069;-83
2023/03/07 00:27:15;;;;;;;8.10;6.40;;;;;;;-0.88;100.00;91804.88;2056204;28;20022;-82
2023/03/07 00:28:17;;;;;;;10.43;6.88;;;;;;;-0.88;100.00;91808.25;2053835;28;20794;-83
2023/03/07 00:29:18;;;;;;;7.93;6.50;;;;;;;-0.93;100.00;91802.63;2052707;28;20563;-82
2023/03/07 00:30:30;;;;;;;8.43;6.68;;;;;;;-1.04;100.00;91805.25;2059164;28;20365;-83
2023/03/07 00:31:50;;;;;;;8.30;6.68;;;;;;;-0.62;100.00;91804.47;2073727;28;20036;-82
2023/03/07 00:32:51;;;;;;;8.93;6.97;;;;;;;-0.85;100.00;91796.25;2065459;28;20026;-82
2023/03/07 00:33:53;;;;;;;10.15;7.65;;;;;;;-0.82;100.00;91795.50;2056997;28;20030;-82
2023/03/07 00:34:58;;;;;;;11.40;7.05;;;;;;;-1.02;100.00;91795.88;2049904;28;20042;-83
2023/03/07 00:36:02;;;;;;;9.95;7.20;;;;;;;-0.82;100.00;91791.00;2051907;28;20046;-83
2023/03/07 00:37:03;;;;;;;8.57;6.53;;;;;;;-0.78;100.00;91793.63;2059134;28;20408;-83
2023/03/07 00:38:05;;;;;;;8.98;7.00;;;;;;;-1.03;100.00;91796.25;2061711;28;20034;-83
2023/03/07 00:39:07;;;;;;;9.00;7.00;;;;;;;-1.09;100.00;91801.13;2060640;28;20030;-83
2023/03/07 00:40:09;;;;;;;9.90;7.70;;;;;;;-1.15;100.00;91794.75;2058096;28;20529;-83
2023/03/07 00:41:12;;;;;;;10.70;7.40;;;;;;;-1.20;100.00;91794.38;2072362;28;20058;-81
2023/03/07 00:42:15;;;;;;;9.15;7.18;;;;;;;-1.22;100.00;91788.78;2077668;28;20049;-82
2023/03/07 00:43:16;;;;;;;11.68;7.63;;;;;;;-1.27;100.00;91798.50;2082479;28;20028;-81
2023/03/07 00:44:17;;;;;;;8.98;7.53;;;;;;;-1.12;100.00;91798.50;2072491;28;20029;-83
2023/03/07 00:45:19;;;;;;;9.05;7.32;;;;;;;-1.21;100.00;91792.91;2069734;28;20010;-82
2023/03/07 00:46:22;;;;;;;10.55;7.20;;;;;;;-1.22;100.00;91794.78;2069295;28;20034;-83
2023/03/07 00:47:23;;;;;;;11.30;7.25;;;;;;;-1.17;100.00;91791.78;2060935;28;20026;-83
2023/03/07 00:48:25;;;;;;;9.35;7.32;;;;;;;-1.12;100.00;91791.41;2071022;28;20042;-83
2023/03/07 00:49:27;;;;;;;10.13;7.35;;;;;;;-1.07;100.00;91793.63;2061033;28;20098;-83
2023/03/07 00:50:31;;;;;;;9.50;7.38;;;;;;;-1.15;100.00;91800.00;2060584;28;20046;-82
2023/03/07 00:51:33;;;;;;;10.73;7.43;;;;;;;-0.85;100.00;91791.75;2064408;28;20022;-81
2023/03/07 00:52:34;;;;;;;9.07;6.78;;;;;;;-0.97;100.00;91788.75;2059476;28;20026;-81
2023/03/07 00:53:36;;;;;;;8.15;6.80;;;;;;;-1.07;100.00;91790.28;2057416;28;20022;-83
2023/03/07 00:54:37;;;;;;;11.32;7.53;;;;;;;-0.90;100.00;91788.78;2051973;28;20432;-83
2023/03/07 00:55:39;;;;;;;9.73;7.85;;;;;;;-1.06;100.00;91789.88;2051319;28;20476;-83
2023/03/07 00:56:50;;;;;;;10.38;7.80;;;;;;;-1.11;100.00;91790.25;2067398;28;20029;-82
2023/03/07 00:57:51;;;;;;;8.98;6.75;;;;;;;-1.16;100.00;91795.88;2069389;28;20514;-82
2023/03/07 00:58:52;;;;;;;9.25;7.10;;;;;;;-1.23;100.00;91790.63;2063738;28;20487;-82
2023/03/07 00:59:53;;;;;;;8.55;7.03;;;;;;;-1.11;100.00;91800.75;2064913;28;20034;-82
2023/03/07 01:00:56;;;;;;;10.65;7.35;;;;;;;-1.12;100.00;91794.00;2056805;28;20088;-83
2023/03/07 01:01:57;;;;;;;10.93;7.25;;;;;;;-0.95;100.00;91795.16;2066037;28;20027;-82
2023/03/07 01:03:00;;;;;;;11.63;7.82;;;;;;;-0.89;100.00;91791.00;2078968;28;20038;-83
2023/03/07 01:04:03;;;;;;;10.68;7.30;;;;;;;-1.03;100.00;91793.66;2072624;28;20022;-83
2023/03/07 01:05:05;;;;;;;10.93;7.13;;;;;;;-1.12;100.00;91782.78;2057066;28;20023;-82
2023/03/07 01:06:17;;;;;;;10.27;7.45;;;;;;;-1.24;100.00;91791.75;2053554;28;20037;-82
2023/03/07 01:07:24;;;;;;;9.43;7.63;;;;;;;-1.24;100.00;91785.78;2052132;28;20087;-83
2023/03/07 01:08:26;;;;;;;9.48;7.80;;;;;;;-1.23;100.00;91780.16;2062044;28;20474;-83
2023/03/07 01:09:27;;;;;;;10.15;7.38;;;;;;;-1.16;100.00;91774.91;2061253;28;20023;-84
2023/03/07 01:10:32;;;;;;;8.85;7.53;;;;;;;-1.12;100.00;91773.03;2057324;28;20042;-84
2023/03/07 01:11:53;;;;;;;9.55;6.75;;;;;;;-0.95;100.00;91781.28;2068922;28;20029;-82
2023/03/07 01:12:54;;;;;;;10.45;7.57;;;;;;;-0.93;100.00;91776.41;2078066;28;20029;-82
2023/03/07 01:13:59;;;;;;;7.93;6.78;;;;;;;-1.05;100.00;91773.06;2075151;28;20033;-83
2023/03/07 01:15:03;;;;;;;8.43;6.95;;;;;;;-1.13;100.00;91776.03;2066625;28;20026;-83
2023/03/07 01:16:15;;;;;;;9.77;7.50;;;;;;;-0.93;100.00;91768.53;2065613;28;20034;-83
2023/03/07 01:17:16;;;;;;;12.25;7.82;;;;;;;-1.00;100.00;91776.41;2063327;28;20206;-83
2023/03/07 01:18:17;;;;;;;10.88;7.60;;;;;;;-1.12;100.00;91773.03;2061257;28;20026;-82
2023/03/07 01:19:18;;;;;;;12.20;7.78;;;;;;;-1.13;100.00;91776.78;2064709;28;20030;-83
2023/03/07 01:20:24;;;;;;;10.18;7.10;;;;;;;-0.76;100.00;91768.50;2067210;28;20093;-82
2023/03/07 01:21:47;;;;;;;9.45;7.13;;;;;;;-0.87;100.00;91772.28;2067372;28;20037;-82
2023/03/07 01:22:48;;;;;;;10.80;7.55;;;;;;;-1.06;100.00;91766.28;2077661;28;20030;-82
2023/03/07 01:23:50;;;;;;;9.07;7.22;;;;;;;-0.98;100.00;91771.53;2071891;28;20037;-83
2023/03/07 01:24:51;;;;;;;9.02;6.95;;;;;;;-0.94;100.00;91759.91;2066494;28;20414;-83
2023/03/07 01:25:52;;;;;;;9.70;7.38;;;;;;;-1.03;100.00;91767.41;2059919;28;20053;-82
2023/03/07 01:27:06;;;;;;;10.52;7.53;;;;;;;-1.15;100.00;91765.16;2070180;28;20022;-82
2023/03/07 01:28:08;;;;;;;8.38;6.63;;;;;;;-0.88;100.00;91765.53;2058752;28;20384;-82
2023/03/07 01:29:10;;;;;;;9.30;6.88;;;;;;;-0.83;100.00;91765.91;2063196;28;20525;-83
2023/03/07 01:30:12;;;;;;;9.65;6.97;;;;;;;-0.86;100.00;91760.66;2079846;28;20068;-83
2023/03/07 01:31:13;;;;;;;8.20;6.95;;;;;;;-1.00;100.00;91755.44;2073545;28;20375;-83
2023/03/07 01:32:14;;;;;;;8.27;6.93;;;;;;;-0.92;100.00;91762.94;2067253;28;20030;-83
2023/03/07 01:33:15;;;;;;;8.23;6.45;;;;;;;-0.99;100.00;91755.06;2057370;28;20109;-83
2023/03/07 01:34:16;;;;;;;9.48;6.93;;;;;;;-0.89;100.00;91753.53;2062812;28;20019;-83
2023/03/07 01:35:17;;;;;;;8.27;7.00;;;;;;;-0.91;100.00;91753.94;2066068;28;20026;-82
2023/03/07 01:36:30;;;;;;;9.68;7.15;;;;;;;-1.00;100.00;91750.94;2061411;28;20470;-84
2023/03/07 01:37:31;;;;;;;7.80;6.57;;;;;;;-1.14;100.00;91753.56;2060342;28;20031;-83
2023/03/07 01:38:35;;;;;;;8.93;6.63;;;;;;;-1.20;100.00;91747.94;2062665;28;20019;-82
2023/03/07 01:39:37;;;;;;;7.70;6.50;;;;;;;-1.29;100.00;91755.44;2059335;28;20030;-84
2023/03/07 01:40:40;;;;;;;8.43;7.05;;;;;;;-1.33;100.00;91752.81;2048462;28;20026;-84
2023/03/07 01:41:42;;;;;;;9.93;7.00;;;;;;;-1.35;100.00;91751.72;2054503;28;20053;-82
2023/03/07 01:42:43;;;;;;;10.32;7.30;;;;;;;-1.40;100.00;91746.84;2067791;28;20018;-82
2023/03/07 01:43:44;;;;;;;8.57;7.28;;;;;;;-1.42;100.00;91747.19;2070939;28;20474;-83
2023/03/07 01:45:02;;;;;;;9.93;6.75;;;;;;;-1.40;100.00;91742.34;2071297;28;20118;-82
2023/03/07 01:46:15;;;;;;;8.55;6.57;;;;;;;-1.42;100.00;91746.44;2068614;28;20026;-82
2023/03/07 01:47:16;;;;;;;9.13;6.60;;;;;;;-1.00;100.00;91737.09;2071786;28;20503;-84
2023/03/07 01:48:17;;;;;;;8.80;6.82;;;;;;;-0.87;100.00;91735.56;2067796;28;20104;-82
2023/03/07 01:49:28;;;;;;;8.00;6.80;;;;;;;-1.12;100.00;91740.84;2058051;28;20054;-84
2023/03/07 01:50:30;;;;;;;10.85;7.45;;;;;;;-1.29;100.00;91735.22;2068304;28;20038;-83
2023/03/07 01:51:40;;;;;;;10.80;7.15;;;;;;;-1.18;100.00;91732.59;2059295;28;20029;-83
2023/03/07 01:52:49;;;;;;;7.88;6.18;;;;;;;-0.90;100.00;91731.81;2063954;28;20053;-82
2023/03/07 01:53:52;;;;;;;8.63;6.47;;;;;;;-1.12;100.00;91725.84;2071253;28;20029;-83
2023/03/07 01:55:08;;;;;;;9.07;7.35;;;;;;;-1.29;100.00;91726.59;2077752;28;20049;-83
2023/03/07 01:56:09;;;;;;;9.00;7.18;;;;;;;-1.32;100.00;91727.34;2067322;28;20106;-84
2023/03/07 01:57:11;;;;;;;9.13;6.88;;;;;;;-1.38;100.00;91731.47;2057588;28;20530;-84
2023/03/07 01:58:14;;;;;;;9.73;7.20;;;;;;;-1.35;100.00;91725.50;2066066;28;20027;-82
2023/03/07 01:59:26;;;;;;;8.73;6.40;;;;;;;-0.95;100.00;91734.09;2063631;28;20025;-84
2023/03/07 02:00:28;;;;;;;8.52;6.80;;;;;;;-1.18;100.00;91724.00;2052993;28;20075;-82
2023/03/07 02:01:30;;;;;;;8.50;6.13;;;;;;;-1.16;100.00;91724.34;2067277;28;20030;-83
2023/03/07 02:02:36;;;;;;;8.00;6.40;;;;;;;-1.22;100.00;91731.13;2076714;28;20022;-83
2023/03/07 02:03:47;;;;;;;9.63;6.60;;;;;;;-1.08;100.00;91731.09;2058848;28;20025;-83
2023/03/07 02:04:55;;;;;;;7.57;6.53;;;;;;;-1.17;100.00;91734.09;2054721;28;20027;-83
2023/03/07 02:06:00;;;;;;;9.75;6.63;;;;;;;-1.27;100.00;91730.38;2066011;28;20558;-83
2023/03/07 02:07:02;;;;;;;8.98;6.93;;;;;;;-1.33;100.00;91733.72;2065476;28;20022;-82
2023/03/07 02:08:06;;;;;;;8.77;7.13;;;;;;;-1.37;100.00;91727.72;2055994;28;20015;-82
2023/03/07 02:09:12;;;;;;;7.47;6.28;;;;;;;-1.40;100.00;91725.88;2061079;28;20018;-84
2023/03/07 02:10:16;;;;;;;8.15;6.60;;;;;;;-1.43;100.00;91716.13;2054151;28;20019;-82
2023/03/07 02:11:29;;;;;;;9.73;6.75;;;;;;;-1.46;100.00;91729.97;2053298;28;20114;-82
2023/03/07 02:12:30;;;;;;;8.30;6.70;;;;;;;-1.45;100.00;91718.38;2049927;28;20683;-83
2023/03/07 02:13:31;;;;;;;8.18;6.65;;;;;;;-1.41;100.00;91726.97;2058136;28;20065;-83
2023/03/07 02:14:32;;;;;;;10.00;6.88;;;;;;;-1.11;100.00;91716.84;2056591;28;20033;-82
2023/03/07 02:15:34;;;;;;;8.60;6.38;;;;;;;-1.07;100.00;91728.09;2053419;28;20025;-83
2023/03/07 02:16:53;;;;;;;7.72;6.07;;;;;;;-0.93;100.00;91723.94;2056817;28;20023;-82
2023/03/07 02:30:02;;;;;;;;;;;;;;;-1.44;100.00;91707.53;2646578;21;20457;-82
2023/03/07 02:31:06;;;;;;;8.45;6.93;;;;;;;-1.46;100.00;91709.00;2587531;23;19915;-82
2023/03/07 02:32:08;;;;;;;9.27;7.03;;;;;;;-1.46;100.00;91706.41;2562769;23;20020;-84
2023/03/07 02:33:09;;;;;;;9.25;7.07;;;;;;;-1.41;100.00;91703.41;2549591;23;20459;-84
2023/03/07 02:34:22;;;;;;;9.60;6.72;;;;;;;-1.39;100.00;91698.53;2561760;23;20036;-84
2023/03/07 02:35:24;;;;;;;9.35;6.82;;;;;;;-1.38;100.00;91702.66;2575925;23;20047;-84
2023/03/07 02:36:32;;;;;;;7.60;6.35;;;;;;;-1.28;100.00;91704.50;2574028;23;20031;-84
2023/03/07 02:37:38;;;;;;;10.40;7.90;;;;;;;-1.39;100.00;91706.41;2562395;23;20012;-84
2023/03/07 02:38:43;;;;;;;9.25;6.72;;;;;;;-1.35;100.00;91707.91;2550990;23;20517;-84
2023/03/07 02:39:47;;;;;;;9.30;6.60;;;;;;;-1.45;100.00;91706.00;2561836;23;20008;-83
2023/03/07 02:40:52;;;;;;;8.52;6.97;;;;;;;-1.50;100.00;91701.16;2549320;23;20425;-83
2023/03/07 02:41:55;;;;;;;8.23;6.53;;;;;;;-1.48;100.00;91698.19;2574069;23;20004;-85
2023/03/07 02:42:58;;;;;;;6.93;6.13;;;;;;;-1.45;100.00;91706.00;2573508;23;20087;-83
2023/03/07 02:43:59;;;;;;;8.82;6.88;;;;;;;-1.54;100.00;91695.94;2561866;23;20021;-84
2023/03/07 02:45:04;;;;;;;8.77;6.20;;;;;;;-1.60;100.00;91697.41;2573389;23;20009;-85
2023/03/07 02:46:05;;;;;;;8.98;7.05;;;;;;;-1.73;100.00;91698.91;2585578;23;20007;-84
2023/03/07 02:47:10;;;;;;;7.50;6.63;;;;;;;-1.74;100.00;91700.03;2562111;23;20005;-83
2023/03/07 02:48:15;;;;;;;7.60;6.57;;;;;;;-1.72;100.00;91699.66;2561038;23;20088;-81
2023/03/07 02:49:17;;;;;;;6.40;5.60;;;;;;;-1.74;100.00;91702.66;2562857;23;20008;-85
2023/03/07 02:50:20;;;;;;;8.10;6.25;;;;;;;-1.72;100.00;91700.38;2561302;23;20009;-81
2023/03/07 02:51:40;;;;;;;6.93;5.78;;;;;;;-1.68;100.00;91705.63;2569630;23;20575;-81
2023/03/07 02:52:41;;;;;;;9.35;6.38;;;;;;;-1.70;100.00;91706.03;2565158;23;20011;-83
2023/03/07 02:53:42;;;;;;;8.98;6.53;;;;;;;-1.72;100.00;91700.38;2573722;23;20485;-81
2023/03/07 02:54:43;;;;;;;7.35;6.03;;;;;;;-1.82;100.00;91701.13;2561793;23;20100;-82
2023/03/07 02:55:45;;;;;;;7.28;5.70;;;;;;;-1.78;100.00;91701.91;2562228;23;20009;-84
2023/03/07 02:56:46;;;;;;;7.65;6.53;;;;;;;-1.73;100.00;91709.38;2549832;23;20101;-82
2023/03/07 02:57:47;;;;;;;8.35;6.25;;;;;;;-1.78;100.00;91709.75;2549808;23;20009;-80
2023/03/07 02:58:48;;;;;;;8.82;6.38;;;;;;;-1.83;100.00;91700.41;2574193;23;20007;-82
2023/03/07 02:59:49;;;;;;;7.38;6.18;;;;;;;-1.82;100.00;91693.28;2574744;23;20004;-81
2023/03/07 03:00:49;;;;;;;8.45;6.18;;;;;;;-1.85;100.00;91696.63;2574421;23;20059;-82
2023/03/07 03:01:50;;;;;;;8.80;5.70;;;;;;;-1.89;100.00;91696.66;2562817;23;20400;-81
2023/03/07 03:02:52;;;;;;;7.32;6.10;;;;;;;-1.89;100.00;91696.66;2575817;23;20046;-82
2023/03/07 03:03:54;;;;;;;7.43;6.35;;;;;;;-1.85;100.00;91694.03;2575657;23;20458;-83
2023/03/07 03:04:56;;;;;;;6.97;6.18;;;;;;;-1.91;100.00;91698.88;2575965;23;20581;-81
2023/03/07 03:05:57;;;;;;;6.85;6.13;;;;;;;-1.94;100.00;91701.50;2588221;22;20004;-83
2023/03/07 03:06:58;;;;;;;7.22;6.38;;;;;;;-1.96;100.00;91701.13;2575864;23;20005;-83
2023/03/07 03:08:00;;;;;;;8.60;6.03;;;;;;;-1.98;100.00;91698.88;2551114;23;20009;-83
2023/03/07 03:09:01;;;;;;;8.02;6.15;;;;;;;-1.99;100.00;91696.63;2550691;23;20706;-83
2023/03/07 03:10:05;;;;;;;8.60;6.35;;;;;;;-2.01;100.00;91699.63;2551380;23;20067;-82
2023/03/07 03:11:07;;;;;;;6.70;5.97;;;;;;;-2.03;100.00;91692.13;2552018;23;20024;-82
2023/03/07 03:12:08;;;;;;;8.77;6.00;;;;;;;-2.13;100.00;91690.25;2550681;23;20005;-84
2023/03/07 03:13:09;;;;;;;7.00;6.18;;;;;;;-2.12;100.00;91691.72;2563411;23;20117;-81
2023/03/07 03:14:10;;;;;;;7.97;6.03;;;;;;;-2.12;100.00;91691.72;2587704;23;20007;-83
2023/03/07 03:15:12;;;;;;;8.25;6.15;;;;;;;-2.15;100.00;91684.66;2575097;23;20069;-83
2023/03/07 03:16:25;;;;;;;8.57;6.47;;;;;;;-2.14;100.00;91686.13;2562462;23;20431;-83
2023/03/07 03:17:26;;;;;;;8.70;6.63;;;;;;;-2.08;100.00;91695.09;2551480;23;20036;-84
2023/03/07 03:18:31;;;;;;;8.73;6.68;;;;;;;-2.10;100.00;91686.91;2562406;23;20000;-85
2023/03/07 03:19:32;;;;;;;8.57;6.15;;;;;;;-2.06;100.00;91695.50;2550728;23;20006;-82
2023/03/07 03:20:33;;;;;;;8.07;6.43;;;;;;;-2.06;100.00;91695.50;2550081;23;20241;-81
2023/03/07 03:21:45;;;;;;;9.07;6.50;;;;;;;-2.00;100.00;91689.91;2541991;23;20605;-82
2023/03/07 03:22:46;;;;;;;8.95;6.60;;;;;;;-2.01;100.00;91689.16;2540147;23;20001;-81
2023/03/07 03:23:47;;;;;;;7.75;6.25;;;;;;;-1.99;100.00;91691.38;2550224;23;20103;-82
2023/03/07 03:24:48;;;;;;;8.20;6.22;;;;;;;-1.98;100.00;91695.50;2562642;23;20063;-82
2023/03/07 03:26:06;;;;;;;8.18;6.43;;;;;;;-1.90;100.00;91697.00;2549858;23;20042;-84
2023/03/07 03:27:08;;;;;;;7.35;5.85;;;;;;;-1.95;100.00;91700.00;2556470;23;20436;-84
2023/03/07 03:28:12;;;;;;;7.50;6.10;;;;;;;-1.96;100.00;91694.03;2561731;23;20088;-84
2023/03/07 03:29:13;;;;;;;6.65;5.82;;;;;;;-1.95;100.00;91695.50;2561949;23;20079;-85
2023/03/07 03:30:14;;;;;;;7.28;6.38;;;;;;;-1.98;100.00;91698.88;2560500;23;20088;-84
2023/03/07 03:31:15;;;;;;;7.00;5.90;;;;;;;-1.99;100.00;91689.53;2570696;23;20111;-85
2023/03/07 03:32:28;;;;;;;8.07;6.43;;;;;;;-1.96;100.00;91694.03;2546577;23;20108;-81
2023/03/07 03:33:29;;;;;;;8.40;6.10;;;;;;;-1.94;100.00;91693.63;2539328;23;20010;-82
2023/03/07 03:34:35;;;;;;;6.88;5.80;;;;;;;-1.94;100.00;91686.53;2535720;23;20073;-82
2023/03/07 03:35:38;;;;;;;7.15;6.22;;;;;;;-1.93;100.00;91689.91;2548400;23;20057;-82
2023/03/07 03:36:42;;;;;;;7.70;6.10;;;;;;;-1.91;100.00;91687.66;2548127;23;20399;-82
2023/03/07 03:37:43;;;;;;;8.20;6.22;;;;;;;-1.99;100.00;91679.03;2560047;23;20343;-84
2023/03/07 03:38:44;;;;;;;8.05;6.18;;;;;;;-2.09;100.00;91685.03;2559016;23;20424;-82
2023/03/07 03:39:45;;;;;;;7.97;6.00;;;;;;;-1.77;100.00;91685.06;2547861;23;20006;-83
2023/03/07 03:40:46;;;;;;;8.15;6.50;;;;;;;-1.69;100.00;91677.97;2547186;23;20418;-83
2023/03/07 03:41:47;;;;;;;8.25;6.10;;;;;;;-1.77;100.00;91674.56;2546146;23;20009;-85
2023/03/07 03:42:49;;;;;;;9.38;6.35;;;;;;;-1.88;100.00;91684.31;2571375;23;20001;-85
2023/03/07 03:43:51;;;;;;;6.25;5.63;;;;;;;-1.84;100.00;91677.94;2571061;23;20004;-85
2023/03/07 03:44:52;;;;;;;8.00;6.47;;;;;;;-1.88;100.00;91681.69;2559034;23;20000;-84
2023/03/07 03:45:55;;;;;;;7.25;6.25;;;;;;;-1.90;100.00;91676.81;2558664;23;20512;-84
2023/03/07 03:46:59;;;;;;;8.02;5.75;;;;;;;-1.97;100.00;91681.31;2558682;23;20053;-84
2023/03/07 03:48:00;;;;;;;8.68;6.30;;;;;;;-1.79;100.00;91666.34;2559880;23;20039;-84
2023/03/07 03:49:04;;;;;;;8.10;5.75;;;;;;;-1.89;100.00;91674.94;2546363;23;20002;-82
2023/03/07 03:50:05;;;;;;;6.97;5.82;;;;;;;-2.04;100.00;91674.19;2546931;23;20001;-84
2023/03/07 03:51:13;;;;;;;8.20;5.90;;;;;;;-2.08;100.00;91679.41;2571104;23;20000;-84
2023/03/07 03:52:28;;;;;;;7.45;5.70;;;;;;;-2.13;100.00;91671.91;2558078;23;20047;-83
2023/03/07 03:53:32;;;;;;;6.63;5.50;;;;;;;-2.08;100.00;91670.81;2561044;23;20040;-84
2023/03/07 03:54:33;;;;;;;7.60;6.25;;;;;;;-2.10;100.00;91675.69;2546443;23;20428;-84
2023/03/07 03:55:34;;;;;;;7.18;5.95;;;;;;;-2.21;100.00;91670.41;2546313;23;20009;-84
2023/03/07 03:56:53;;;;;;;8.70;6.07;;;;;;;-2.23;100.00;91670.03;2549472;23;20001;-85
2023/03/07 03:57:55;;;;;;;6.50;5.85;;;;;;;-2.22;100.00;91668.91;2562659;23;20733;-85
2023/03/07 03:58:57;;;;;;;7.22;6.00;;;;;;;-2.26;100.00;91662.91;2558858;23;20458;-83
2023/03/07 04:00:03;;;;;;;7.97;5.93;;;;;;;-2.29;100.00;91661.78;2547492;23;20078;-84
2023/03/07 04:01:07;;;;;;;7.07;5.65;;;;;;;-2.35;100.00;91662.53;2559759;23;20004;-84
2023/03/07 04:02:08;;;;;;;7.28;6.30;;;;;;;-2.33;100.00;91665.50;2557712;23;20001;-84
2023/03/07 04:03:09;;;;;;;7.88;6.13;;;;;;;-2.39;100.00;91659.16;2552610;23;20021;-84
2023/03/07 04:04:12;;;;;;;6.20;5.18;;;;;;;-2.37;100.00;91667.38;2549529;23;20009;-83
2023/03/07 04:05:14;;;;;;;6.20;5.60;;;;;;;-2.42;100.00;91660.63;2562639;23;20028;-83
2023/03/07 04:06:21;;;;;;;6.63;5.40;;;;;;;-2.43;100.00;91658.41;2560864;23;20451;-83
2023/03/07 04:07:22;;;;;;;7.45;6.40;;;;;;;-2.39;100.00;91665.13;2559532;23;20012;-84
2023/03/07 04:08:23;;;;;;;8.25;6.55;;;;;;;-2.48;100.00;91662.13;2547002;23;20006;-84
2023/03/07 04:09:24;;;;;;;7.28;5.40;;;;;;;-2.58;100.00;91660.97;2546305;23;20393;-84
2023/03/07 04:10:29;;;;;;;6.70;5.85;;;;;;;-2.54;100.00;91661.75;2533877;23;20002;-83
2023/03/07 04:11:38;;;;;;;6.18;5.53;;;;;;;-2.34;100.00;91664.78;2563064;23;20012;-84
2023/03/07 04:12:39;;;;;;;8.15;6.20;;;;;;;-2.32;100.00;91665.16;2558459;23;20001;-83
2023/03/07 04:13:43;;;;;;;9.40;6.47;;;;;;;-2.41;100.00;91659.53;2546307;23;20017;-84
2023/03/07 04:14:44;;;;;;;7.03;5.90;;;;;;;-2.45;100.00;91660.66;2534750;23;20013;-83
2023/03/07 04:15:45;;;;;;;8.13;6.05;;;;;;;-2.41;100.00;91661.41;2533796;23;20006;-83
2023/03/07 04:16:46;;;;;;;7.07;5.70;;;;;;;-2.42;100.00;91659.88;2545980;23;20013;-83
2023/03/07 04:17:47;;;;;;;7.30;5.97;;;;;;;-2.63;100.00;91656.09;2545933;23;20005;-84
2023/03/07 04:18:49;;;;;;;6.93;6.18;;;;;;;-2.66;100.00;91659.44;2545833;23;20012;-81
2023/03/07 04:19:51;;;;;;;7.40;5.95;;;;;;;-2.66;100.00;91656.84;2546105;23;20001;-85
2023/03/07 04:20:52;;;;;;;7.97;6.03;;;;;;;-2.62;100.00;91656.84;2545774;23;20318;-84
2023/03/07 04:21:53;;;;;;;8.25;6.05;;;;;;;-2.56;100.00;91663.22;2546089;23;20009;-83
2023/03/07 04:22:54;;;;;;;8.88;6.07;;;;;;;-2.57;100.00;91659.09;2558122;23;20004;-83
2023/03/07 04:23:57;;;;;;;8.05;5.95;;;;;;;-2.66;100.00;91654.22;2546666;23;20317;-83
2023/03/07 04:25:00;;;;;;;8.52;6.03;;;;;;;-2.70;100.00;91653.47;2547093;23;20016;-84
2023/03/07 04:26:06;;;;;;;7.20;5.80;;;;;;;-2.72;100.00;91655.72;2546707;23;20507;-83
2023/03/07 04:27:07;;;;;;;10.43;6.43;;;;;;;-2.74;100.00;91660.53;2550284;23;20005;-83
2023/03/07 04:28:08;;;;;;;8.45;6.63;;;;;;;-2.70;100.00;91657.94;2537814;23;20002;-83
2023/03/07 04:29:09;;;;;;;8.00;6.35;;;;;;;-2.59;100.00;91654.25;2536169;23;20077;-84
2023/03/07 04:30:11;;;;;;;8.75;6.30;;;;;;;-2.64;100.00;91656.47;2546091;23;20012;-83
2023/03/07 04:31:39;;;;;;;12.20;6.10;;;;;;;-2.62;100.00;91649.75;2545853;23;20530;-83
2023/03/07 04:32:41;;;;;;;6.70;5.47;;;;;;;-2.48;100.00;91646.44;2548524;23;20341;-83
2023/03/07 04:33:44;;;;;;;8.40;6.45;;;;;;;-2.56;100.00;91658.72;2533811;23;20109;-84
2023/03/07 04:34:47;;;;;;;8.75;6.55;;;;;;;-2.46;100.00;91652.03;2546710;23;20005;-84
2023/03/07 04:35:48;;;;;;;9.70;6.65;;;;;;;-2.51;100.00;91649.03;2558134;23;20001;-83
2023/03/07 04:36:50;;;;;;;9.75;6.72;;;;;;;-2.43;100.00;91655.78;2557841;23;20015;-83
2023/03/07 04:37:51;;;;;;;7.32;6.63;;;;;;;-2.35;100.00;91652.81;2558624;23;20011;-84
2023/03/07 04:38:53;;;;;;;9.85;7.20;;;;;;;-2.31;100.00;91652.81;2558007;23;20008;-84
2023/03/07 04:39:54;;;;;;;9.02;7.00;;;;;;;-2.37;100.00;91655.06;2534140;23;20056;-83
2023/03/07 04:40:58;;;;;;;7.75;6.95;;;;;;;-2.41;100.00;91646.44;2534277;23;20010;-83
2023/03/07 04:41:59;;;;;;;8.60;6.93;;;;;;;-2.18;100.00;91648.00;2546537;23;20016;-83
2023/03/07 04:43:06;;;;;;;9.85;6.75;;;;;;;-2.31;100.00;91645.72;2546437;23;20479;-83
2023/03/07 04:44:07;;;;;;;7.47;6.60;;;;;;;-2.34;100.00;91646.44;2546292;23;20005;-84
2023/03/07 04:45:09;;;;;;;7.07;6.13;;;;;;;-1.93;100.00;91643.53;2545426;23;20036;-84
2023/03/07 04:46:13;;;;;;;8.05;6.90;;;;;;;-2.12;100.00;91652.47;2545188;23;20005;-84
2023/03/07 04:47:14;;;;;;;7.50;6.40;;;;;;;-2.22;100.00;91637.50;2557319;23;20079;-84
2023/03/07 04:48:15;;;;;;;10.10;6.68;;;;;;;-2.24;100.00;91641.59;2545365;23;20521;-83
2023/03/07 04:49:16;;;;;;;11.77;6.50;;;;;;;-2.29;100.00;91637.50;2557612;23;20448;-83
2023/03/07 04:50:18;;;;;;;8.60;6.53;;;;;;;-2.35;100.00;91642.34;2557428;23;20645;-83
2023/03/07 04:51:20;;;;;;;8.52;6.90;;;;;;;-2.41;100.00;91646.44;2557991;23;20004;-84
2023/03/07 04:52:23;;;;;;;7.88;6.40;;;;;;;-2.35;100.00;91646.84;2557017;23;20051;-83
2023/03/07 04:53:24;;;;;;;7.30;6.47;;;;;;;-2.33;100.00;91639.34;2533305;23;20005;-83
2023/03/07 04:54:33;;;;;;;7.25;6.50;;;;;;;-2.16;100.00;91646.47;2557831;23;20039;-83
2023/03/07 04:55:34;;;;;;;9.48;6.65;;;;;;;-2.22;100.00;91634.91;2556979;23;20017;-83
2023/03/07 04:56:36;;;;;;;7.30;6.53;;;;;;;-2.28;100.00;91636.41;2545178;23;20084;-82
2023/03/07 04:57:37;;;;;;;8.77;7.07;;;;;;;-2.33;100.00;91639.34;2545197;23;20009;-83
2023/03/07 04:58:38;;;;;;;8.60;6.47;;;;;;;-2.30;100.00;91630.75;2544769;23;20409;-83
2023/03/07 04:59:39;;;;;;;8.35;6.82;;;;;;;-2.31;100.00;91637.13;2557281;23;20423;-84
2023/03/07 05:00:43;;;;;;;8.43;7.03;;;;;;;-2.21;100.00;91623.31;2557016;23;20009;-83
2023/03/07 05:01:48;;;;;;;8.15;6.75;;;;;;;-2.27;100.00;91630.03;2545664;23;20009;-83
2023/03/07 05:02:49;;;;;;;8.80;6.78;;;;;;;-2.22;100.00;91640.13;2546074;23;20002;-82
2023/03/07 05:03:53;;;;;;;7.72;6.68;;;;;;;-2.19;100.00;91630.78;2545077;23;20017;-83
2023/03/07 05:04:55;;;;;;;8.13;6.93;;;;;;;-2.18;100.00;91627.78;2534259;23;20012;-84
2023/03/07 05:06:01;;;;;;;7.25;6.22;;;;;;;-2.00;100.00;91625.19;2545701;23;20012;-82
2023/03/07 05:07:03;;;;;;;7.93;7.13;;;;;;;-2.03;100.00;91629.28;2558543;23;20347;-81
2023/03/07 05:08:10;;;;;;;8.75;6.90;;;;;;;-2.11;100.00;91625.19;2557420;23;20012;-83